White City, Kentucky
Current Conditions -  °F | °C
As of 2:58 AM on Sunday 26 Oct 2014 (Local Time) from KFTK Reporting Station
Clear Clear  
Wind Chill: 55°   Ceiling: Unl
Heat Index: 55°   Visibility: 10mi
Dew Point: 51°   Wind: 5mph
Humidity: 86%   Direction: 300°WNW
Pressure: 29.98"   Gusts: NA
Location:  37.572°N, 85.7077°W
Report Text: KFTK 260658Z AUTO 30004KT 10SM CLR 13/11 A2998 RMK AO2 SLP152 T01290106
Loading
Personal Weather Stations






























Interactive Weather Map
Tropical Storm Tracking
New forecast layout! Learn more

10-Day Weather Forecast

Advertisements
Track Severe Weather on mobile